createdAt,value
2023-05-05T00:00:42.514Z,27.20
2023-05-05T00:01:42.544Z,27.18
2023-05-05T00:02:42.683Z,27.14
2023-05-05T00:03:42.833Z,27.21
2023-05-05T00:04:42.674Z,27.22
2023-05-05T00:05:42.708Z,27.15
2023-05-05T00:06:42.758Z,27.18
2023-05-05T00:07:42.776Z,27.19
2023-05-05T00:08:42.829Z,27.17
2023-05-05T00:09:42.866Z,27.21
2023-05-05T00:10:42.910Z,27.21
2023-05-05T00:11:42.956Z,27.23
2023-05-05T00:12:43.129Z,27.19
2023-05-05T00:13:43.110Z,27.18
2023-05-05T00:14:43.131Z,27.28
2023-05-05T00:15:43.141Z,27.24
2023-05-05T00:16:43.269Z,27.26
2023-05-05T00:17:43.331Z,27.23
2023-05-05T00:18:43.319Z,27.25
2023-05-05T00:19:43.340Z,27.25
2023-05-05T00:20:43.423Z,27.24
2023-05-05T00:21:43.452Z,27.26
2023-05-05T00:22:43.467Z,27.29
2023-05-05T00:23:43.534Z,27.29
2023-05-05T00:24:43.605Z,27.33
2023-05-05T00:25:43.669Z,27.32
2023-05-05T00:26:43.679Z,27.30
2023-05-05T00:27:43.719Z,27.34
2023-05-05T00:28:43.772Z,27.33
2023-05-05T00:29:43.791Z,27.31
2023-05-05T00:30:43.840Z,27.33
2023-05-05T00:31:43.964Z,27.31
2023-05-05T00:32:43.996Z,27.33
2023-05-05T00:33:43.991Z,27.35
2023-05-05T00:34:44.056Z,27.33
2023-05-05T00:35:44.109Z,27.39
2023-05-05T00:36:44.147Z,27.38
2023-05-05T00:37:44.168Z,27.36
2023-05-05T00:38:44.279Z,27.35
2023-05-05T00:39:44.291Z,27.38
2023-05-05T00:40:44.349Z,27.35
2023-05-05T00:41:44.387Z,27.39
2023-05-05T00:42:44.428Z,27.37
2023-05-05T00:43:44.512Z,27.31
2023-05-05T00:44:44.555Z,27.44
2023-05-05T00:45:44.581Z,27.42
2023-05-05T00:46:44.704Z,27.43
2023-05-05T00:47:44.775Z,27.37
2023-05-05T00:48:44.761Z,27.45
2023-05-05T00:49:44.854Z,27.39
2023-05-05T00:50:44.922Z,27.39
2023-05-05T00:51:44.980Z,27.42
2023-05-05T00:52:44.977Z,27.45
2023-05-05T00:53:45.082Z,27.49
2023-05-05T00:54:45.102Z,27.41
2023-05-05T00:55:45.141Z,27.46
2023-05-05T00:56:45.203Z,27.43
2023-05-05T00:57:45.260Z,27.40
2023-05-05T00:58:45.284Z,27.41
2023-05-05T00:59:45.368Z,27.44
2023-05-05T01:00:45.427Z,27.44
2023-05-05T01:01:45.500Z,27.40
2023-05-05T01:02:45.615Z,27.43
2023-05-05T01:03:45.700Z,27.41
2023-05-05T01:04:45.637Z,27.47
2023-05-05T01:05:45.734Z,27.44
2023-05-05T01:06:45.778Z,27.47
2023-05-05T01:07:45.798Z,27.48
2023-05-05T01:08:45.890Z,27.47
2023-05-05T01:09:45.957Z,27.45
2023-05-05T01:10:46.027Z,27.47
2023-05-05T01:11:46.060Z,27.44
2023-05-05T01:12:46.122Z,27.40
2023-05-05T01:13:46.137Z,27.47
2023-05-05T01:14:46.216Z,27.44
2023-05-05T01:15:46.250Z,27.47
2023-05-05T01:16:46.351Z,27.46
2023-05-05T01:17:46.414Z,27.48
2023-05-05T01:18:46.494Z,27.43
2023-05-05T01:19:46.511Z,27.44
2023-05-05T01:20:46.606Z,27.43
2023-05-05T01:21:46.646Z,27.50
2023-05-05T01:22:46.686Z,27.48
2023-05-05T01:23:46.740Z,27.53
2023-05-05T01:24:46.830Z,27.53
2023-05-05T01:25:46.840Z,27.48
2023-05-05T01:26:46.920Z,27.49
2023-05-05T01:27:47.010Z,27.45
2023-05-05T01:28:47.031Z,27.49
2023-05-05T01:29:47.121Z,27.53
2023-05-05T01:30:47.172Z,27.50
2023-05-05T01:31:47.241Z,27.48
2023-05-05T01:32:47.400Z,27.53
2023-05-05T01:33:47.334Z,27.53
2023-05-05T01:34:47.421Z,27.55
2023-05-05T01:35:47.466Z,27.54
2023-05-05T01:36:47.529Z,27.56
2023-05-05T01:37:47.580Z,27.50
2023-05-05T01:38:47.644Z,27.49
2023-05-05T01:39:47.680Z,27.54
2023-05-05T01:40:47.765Z,27.59
2023-05-05T01:41:47.797Z,27.49
2023-05-05T01:42:47.871Z,27.51
2023-05-05T01:43:47.926Z,27.54
2023-05-05T01:44:48.071Z,27.56
2023-05-05T01:45:48.156Z,27.59
2023-05-05T01:46:48.125Z,27.57
2023-05-05T01:47:48.233Z,27.59
2023-05-05T01:48:48.222Z,27.55
2023-05-05T01:49:48.300Z,27.60
2023-05-05T01:50:48.375Z,27.58
2023-05-05T01:51:48.440Z,27.57
2023-05-05T01:52:48.484Z,27.61
2023-05-05T01:53:48.546Z,27.60
2023-05-05T01:54:48.616Z,27.61
2023-05-05T01:55:48.695Z,27.53
2023-05-05T01:56:48.716Z,27.57
2023-05-05T01:57:48.797Z,27.56
2023-05-05T01:58:48.840Z,27.59
2023-05-05T01:59:48.956Z,27.55
2023-05-05T02:00:48.955Z,27.60
2023-05-05T02:01:49.032Z,27.64
2023-05-05T02:02:49.327Z,27.60
2023-05-05T02:03:49.149Z,27.63
2023-05-05T02:04:49.220Z,27.59
2023-05-05T02:05:49.295Z,27.59
2023-05-05T02:06:49.367Z,27.60
2023-05-05T02:07:49.379Z,27.60
2023-05-05T02:08:49.459Z,27.59
2023-05-05T02:09:49.493Z,27.65
2023-05-05T02:10:49.611Z,27.61
2023-05-05T02:11:49.650Z,27.63
2023-05-05T02:12:49.713Z,27.64
2023-05-05T02:13:49.746Z,27.58
2023-05-05T02:14:49.843Z,27.67
2023-05-05T02:15:49.866Z,27.67
2023-05-05T02:16:49.915Z,27.70
2023-05-05T02:17:50.010Z,27.66
2023-05-05T02:18:50.076Z,27.66
2023-05-05T02:19:50.110Z,27.69
2023-05-05T02:20:50.193Z,27.62
2023-05-05T02:21:50.243Z,27.62
2023-05-05T02:22:50.266Z,27.70
2023-05-05T02:23:50.347Z,27.67
2023-05-05T02:24:50.348Z,27.71
2023-05-05T02:25:50.432Z,27.67
2023-05-05T02:26:50.465Z,27.68
2023-05-05T02:27:50.544Z,27.68
2023-05-05T02:28:50.549Z,27.71
2023-05-05T02:29:50.633Z,27.68
2023-05-05T02:30:50.669Z,27.71
2023-05-05T02:31:50.807Z,27.72
2023-05-05T02:32:50.820Z,27.71
2023-05-05T02:33:50.796Z,27.69
2023-05-05T02:34:50.834Z,27.69
2023-05-05T02:35:50.905Z,27.69
2023-05-05T02:36:50.941Z,27.72
2023-05-05T02:37:51.048Z,27.74
2023-05-05T02:38:51.028Z,27.72
2023-05-05T02:39:51.106Z,27.72
2023-05-05T02:40:51.171Z,27.75
2023-05-05T02:41:51.149Z,27.75
2023-05-05T02:42:51.263Z,27.75
2023-05-05T02:43:51.285Z,27.76
2023-05-05T02:44:51.269Z,27.70
2023-05-05T02:45:51.347Z,27.71
2023-05-05T02:46:51.409Z,27.70
2023-05-05T02:47:51.443Z,27.70
2023-05-05T02:48:51.546Z,27.72
2023-05-05T02:49:51.506Z,27.70
2023-05-05T02:50:51.557Z,27.70
2023-05-05T02:51:51.658Z,27.72
2023-05-05T02:52:51.669Z,27.75
2023-05-05T02:53:51.703Z,27.77
2023-05-05T02:54:51.755Z,27.75
2023-05-05T02:55:51.778Z,27.75
2023-05-05T02:56:51.838Z,27.76
2023-05-05T02:57:51.875Z,27.78
2023-05-05T02:58:51.884Z,27.78
2023-05-05T02:59:51.927Z,27.77
2023-05-05T03:00:51.994Z,27.78
2023-05-05T03:01:52.103Z,27.78
2023-05-05T03:02:52.181Z,27.83
2023-05-05T03:03:52.324Z,27.79
2023-05-05T03:04:52.170Z,27.78
2023-05-05T03:05:52.199Z,27.84
2023-05-05T03:06:52.254Z,27.78
2023-05-05T03:07:52.258Z,27.80
2023-05-05T03:08:52.313Z,27.78
2023-05-05T03:09:52.362Z,27.77
2023-05-05T03:10:52.380Z,27.80
2023-05-05T03:11:52.415Z,27.80
2023-05-05T03:12:52.539Z,27.79
2023-05-05T03:13:52.533Z,27.79
2023-05-05T03:14:52.546Z,27.88
2023-05-05T03:15:52.581Z,27.81
2023-05-05T03:16:52.592Z,27.86
2023-05-05T03:17:52.688Z,27.84
2023-05-05T03:18:52.626Z,27.81
2023-05-05T03:19:52.669Z,27.79
2023-05-05T03:20:52.701Z,27.82
2023-05-05T03:21:52.694Z,27.81
2023-05-05T03:22:52.764Z,27.83
2023-05-05T03:23:52.754Z,27.79
2023-05-05T03:24:52.783Z,27.79
2023-05-05T03:25:52.785Z,27.83
2023-05-05T03:26:52.787Z,27.79
2023-05-05T03:27:52.796Z,27.80
2023-05-05T03:28:52.829Z,27.84
2023-05-05T03:29:52.834Z,27.82
2023-05-05T03:30:52.846Z,27.82
2023-05-05T03:31:52.915Z,27.86
2023-05-05T03:32:52.994Z,27.84
2023-05-05T03:33:52.975Z,27.81
2023-05-05T03:34:53.010Z,27.84
2023-05-05T03:35:53.035Z,27.84
2023-05-05T03:36:53.031Z,27.83
2023-05-05T03:37:53.035Z,27.85
2023-05-05T03:38:53.095Z,27.86
2023-05-05T03:39:53.084Z,27.86
2023-05-05T03:40:53.093Z,27.85
2023-05-05T03:41:53.103Z,27.90
2023-05-05T03:42:53.151Z,27.85
2023-05-05T03:43:53.172Z,27.89
2023-05-05T03:44:53.212Z,27.91
2023-05-05T03:45:53.273Z,27.84
2023-05-05T03:46:53.197Z,27.86
2023-05-05T03:47:53.334Z,27.89
2023-05-05T03:48:53.320Z,27.86
2023-05-05T03:49:53.279Z,27.89
2023-05-05T03:50:53.293Z,27.89
2023-05-05T03:51:53.312Z,27.91
2023-05-05T03:52:53.343Z,27.93
2023-05-05T03:53:53.397Z,27.89
2023-05-05T03:54:53.360Z,27.90
2023-05-05T03:55:53.364Z,27.89
2023-05-05T03:56:53.357Z,27.94
2023-05-05T03:57:53.418Z,27.89
2023-05-05T03:58:53.425Z,27.95
2023-05-05T03:59:53.388Z,27.92
2023-05-05T04:00:53.436Z,27.93
2023-05-05T04:01:53.414Z,27.89
2023-05-05T04:02:53.485Z,27.93
2023-05-05T04:03:53.480Z,27.99
2023-05-05T04:04:53.430Z,27.93
2023-05-05T04:05:53.498Z,27.90
2023-05-05T04:06:53.433Z,27.91
2023-05-05T04:07:53.418Z,27.90
2023-05-05T04:08:53.437Z,27.90
2023-05-05T04:09:53.465Z,27.92
2023-05-05T04:10:53.466Z,27.91
2023-05-05T04:11:53.455Z,27.91
2023-05-05T04:12:53.480Z,27.94
2023-05-05T04:13:53.512Z,27.95
2023-05-05T04:14:53.459Z,27.97
2023-05-05T04:15:53.544Z,28.02
2023-05-05T04:16:53.455Z,28.05
2023-05-05T04:17:53.562Z,28.04
2023-05-05T04:18:53.494Z,28.07
2023-05-05T04:19:53.513Z,28.08
2023-05-05T04:20:53.511Z,28.11
2023-05-05T04:21:53.615Z,28.14
2023-05-05T04:22:53.529Z,28.15
2023-05-05T04:23:53.528Z,28.14
2023-05-05T04:24:53.576Z,28.14
2023-05-05T04:25:53.572Z,28.13
2023-05-05T04:26:53.575Z,28.13
2023-05-05T04:27:53.599Z,28.11
2023-05-05T04:28:53.635Z,28.11
2023-05-05T04:29:53.642Z,28.15
2023-05-05T04:30:53.765Z,28.21
2023-05-05T04:31:53.693Z,28.17
2023-05-05T04:32:53.812Z,28.18
2023-05-05T04:33:53.712Z,28.19
2023-05-05T04:34:53.697Z,28.18
2023-05-05T04:35:53.713Z,28.18
2023-05-05T04:36:53.753Z,28.19
2023-05-05T04:37:53.750Z,28.15
2023-05-05T04:38:53.846Z,28.13
2023-05-05T04:39:53.823Z,28.15
2023-05-05T04:40:53.746Z,28.10
2023-05-05T04:41:53.821Z,28.09
2023-05-05T04:42:53.838Z,28.14
2023-05-05T04:43:53.826Z,28.09
2023-05-05T04:44:53.773Z,28.08
2023-05-05T04:45:53.797Z,28.05
2023-05-05T04:46:53.919Z,28.05
2023-05-05T04:47:53.819Z,28.06
2023-05-05T04:48:53.764Z,28.05
2023-05-05T04:49:53.769Z,28.02
2023-05-05T04:50:53.774Z,28.03
2023-05-05T04:51:53.829Z,28.04
2023-05-05T04:52:53.786Z,28.03
2023-05-05T04:53:53.792Z,28.03
2023-05-05T04:54:53.797Z,27.99
2023-05-05T04:55:53.812Z,28.02
2023-05-05T04:56:53.816Z,28.01
2023-05-05T04:57:53.784Z,28.02
2023-05-05T04:58:53.832Z,28.06
2023-05-05T04:59:53.841Z,28.06
2023-05-05T05:00:53.836Z,28.03
2023-05-05T05:01:53.823Z,28.00
2023-05-05T05:02:53.883Z,28.03
2023-05-05T05:03:53.947Z,28.03
2023-05-05T05:04:53.811Z,28.10
2023-05-05T05:05:53.834Z,28.11
2023-05-05T05:06:53.815Z,28.11
2023-05-05T05:07:53.818Z,28.07
2023-05-05T05:08:53.832Z,28.10
2023-05-05T05:09:53.840Z,28.10
2023-05-05T05:10:53.837Z,28.13
2023-05-05T05:11:53.852Z,28.05
2023-05-05T05:12:53.905Z,28.10
2023-05-05T05:13:53.829Z,28.13
2023-05-05T05:14:53.875Z,28.13
2023-05-05T05:15:53.841Z,28.13
2023-05-05T05:16:53.897Z,28.09
2023-05-05T05:17:53.920Z,28.11
2023-05-05T05:18:53.902Z,28.05
2023-05-05T05:19:53.874Z,28.08
2023-05-05T05:20:53.875Z,28.10
2023-05-05T05:21:53.875Z,28.09
2023-05-05T05:22:54.015Z,28.12
2023-05-05T05:23:53.894Z,28.05
2023-05-05T05:24:53.909Z,28.10
2023-05-05T05:25:53.865Z,28.14
2023-05-05T05:26:53.942Z,28.09
2023-05-05T05:28:08.343Z,28.10
2023-05-05T05:28:54.897Z,28.12
2023-05-05T05:29:53.838Z,28.11
2023-05-05T05:30:53.849Z,28.11
2023-05-05T05:31:53.894Z,28.13
2023-05-05T05:32:53.899Z,28.18
2023-05-05T05:33:53.856Z,28.38
2023-05-05T05:34:53.831Z,28.59
2023-05-05T05:35:53.815Z,28.66
2023-05-05T05:36:53.815Z,29.00
2023-05-05T05:37:53.823Z,29.40
2023-05-05T05:38:53.790Z,29.50
2023-05-05T05:39:53.856Z,29.84
2023-05-05T05:40:53.801Z,30.00
2023-05-05T05:41:53.816Z,30.61
2023-05-05T05:42:53.819Z,30.64
2023-05-05T05:43:53.769Z,31.00
2023-05-05T05:44:54.185Z,31.11
2023-05-05T05:45:53.794Z,31.32
2023-05-05T05:46:53.734Z,32.23
2023-05-05T05:47:53.828Z,31.94
2023-05-05T05:48:53.816Z,31.81
2023-05-05T05:49:53.785Z,32.01
2023-05-05T05:50:53.861Z,32.03
2023-05-05T05:51:53.780Z,32.20
2023-05-05T05:52:53.746Z,32.09
2023-05-05T05:53:53.824Z,32.18
2023-05-05T05:54:53.899Z,32.11
2023-05-05T05:55:53.998Z,32.17
2023-05-05T05:56:54.010Z,32.00
2023-05-05T05:57:54.030Z,32.06
2023-05-05T05:58:54.053Z,32.22
2023-05-05T05:59:54.075Z,32.09
2023-05-05T06:00:54.111Z,32.26
2023-05-05T06:01:54.170Z,32.17
2023-05-05T06:02:54.315Z,31.88
2023-05-05T06:03:54.239Z,31.98
2023-05-05T06:04:54.159Z,31.92
2023-05-05T06:05:54.157Z,32.12
2023-05-05T06:06:54.163Z,31.84
2023-05-05T06:07:54.208Z,31.94
2023-05-05T06:08:54.208Z,31.83
2023-05-05T06:09:54.171Z,31.74
2023-05-05T06:10:54.217Z,31.76
2023-05-05T06:11:54.217Z,31.85
2023-05-05T06:12:54.220Z,31.89
2023-05-05T06:13:54.226Z,31.89
2023-05-05T06:14:54.239Z,32.19
2023-05-05T06:15:54.235Z,32.05
2023-05-05T06:16:54.281Z,31.96
2023-05-05T06:17:54.341Z,31.94
2023-05-05T06:18:54.315Z,31.77
2023-05-05T06:19:54.648Z,31.69
2023-05-05T06:20:54.440Z,31.62
2023-05-05T06:21:54.534Z,31.63
2023-05-05T06:22:54.618Z,31.40
2023-05-05T06:23:54.651Z,31.38
2023-05-05T06:24:54.668Z,31.53
2023-05-05T06:25:54.727Z,31.42
2023-05-05T06:26:54.759Z,31.51
2023-05-05T06:27:54.808Z,31.43
2023-05-05T06:28:54.916Z,31.42
2023-05-05T06:29:54.918Z,31.45
2023-05-05T06:30:54.964Z,31.40
2023-05-05T06:31:55.062Z,31.44
2023-05-05T06:32:55.079Z,31.46
2023-05-05T06:33:55.098Z,31.48
2023-05-05T06:34:55.131Z,31.30
2023-05-05T06:35:55.214Z,31.21
2023-05-05T06:36:55.232Z,31.17
2023-05-05T06:37:55.273Z,31.40
2023-05-05T06:38:55.293Z,30.99
2023-05-05T06:39:55.365Z,30.88
2023-05-05T06:40:55.451Z,30.77
2023-05-05T06:41:55.460Z,30.74
2023-05-05T06:42:55.506Z,30.61
2023-05-05T06:43:55.517Z,30.57
2023-05-05T06:44:55.567Z,30.89
2023-05-05T06:45:55.648Z,30.74
2023-05-05T06:46:55.729Z,30.68
2023-05-05T06:47:55.866Z,30.63
2023-05-05T06:48:55.827Z,30.68
2023-05-05T06:49:55.846Z,30.70
2023-05-05T06:50:55.943Z,30.71
2023-05-05T06:51:55.966Z,30.74
2023-05-05T06:52:56.060Z,30.69
2023-05-05T06:53:56.094Z,30.80
2023-05-05T06:54:56.171Z,30.73
2023-05-05T06:55:56.208Z,30.79
2023-05-05T06:56:58.183Z,30.70
2023-05-05T06:57:56.294Z,30.70
2023-05-05T06:58:56.242Z,31.28
2023-05-05T06:59:56.697Z,30.79
2023-05-05T07:00:56.234Z,30.73
2023-05-05T07:01:56.569Z,30.64
2023-05-05T07:02:56.236Z,30.66
2023-05-05T07:03:56.208Z,30.67
2023-05-05T07:04:56.242Z,30.67
2023-05-05T07:05:56.173Z,30.59
2023-05-05T07:06:56.164Z,30.60
2023-05-05T07:07:56.195Z,30.58
2023-05-05T07:08:56.162Z,30.61
2023-05-05T07:09:56.160Z,30.60
2023-05-05T07:10:56.204Z,30.68
2023-05-05T07:11:56.162Z,30.62
2023-05-05T07:12:56.457Z,30.67
2023-05-05T07:13:56.495Z,30.68
2023-05-05T07:14:56.129Z,30.69
2023-05-05T07:15:56.141Z,30.69
2023-05-05T07:16:56.130Z,30.75
2023-05-05T07:17:56.145Z,30.70
2023-05-05T07:18:56.115Z,30.73
2023-05-05T07:19:56.080Z,30.76
2023-05-05T07:20:56.075Z,30.66
2023-05-05T07:21:56.069Z,30.68
2023-05-05T07:22:56.083Z,30.82
2023-05-05T07:23:56.090Z,30.76
2023-05-05T07:24:56.052Z,30.81
2023-05-05T07:25:56.031Z,30.89
2023-05-05T07:26:56.036Z,30.84
2023-05-05T07:27:56.038Z,30.68
2023-05-05T07:28:56.117Z,30.83
2023-05-05T07:29:56.050Z,30.73
2023-05-05T07:30:56.008Z,30.75
2023-05-05T07:31:56.049Z,30.74
2023-05-05T07:32:55.995Z,30.27
2023-05-05T07:33:56.001Z,29.85
2023-05-05T07:34:55.967Z,30.10
2023-05-05T07:35:55.979Z,29.95
2023-05-05T07:36:55.952Z,29.84
2023-05-05T07:37:55.949Z,30.05
2023-05-05T07:38:55.994Z,30.19
2023-05-05T07:39:55.949Z,30.19
2023-05-05T07:40:55.959Z,30.40
2023-05-05T07:41:55.963Z,30.24
2023-05-05T07:42:55.935Z,30.29
2023-05-05T07:43:55.924Z,30.20
2023-05-05T07:44:56.067Z,30.12
2023-05-05T07:45:55.948Z,30.08
2023-05-05T07:46:55.892Z,30.11
2023-05-05T07:47:55.912Z,30.13
2023-05-05T07:48:55.855Z,30.18
2023-05-05T07:49:55.904Z,30.10
2023-05-05T07:50:55.980Z,30.05
2023-05-05T07:51:56.011Z,30.01
2023-05-05T07:53:56.146Z,29.97
2023-05-05T07:54:56.191Z,29.91
2023-05-05T07:55:56.244Z,29.89
2023-05-05T07:56:56.304Z,29.85
2023-05-05T07:57:56.319Z,29.85
2023-05-05T07:58:56.389Z,29.80
2023-05-05T07:59:56.395Z,29.76
2023-05-05T08:00:56.492Z,29.72
2023-05-05T08:01:56.451Z,29.70
2023-05-05T08:02:56.560Z,29.68
2023-05-05T08:03:56.638Z,29.61
2023-05-05T08:04:56.567Z,29.59
2023-05-05T08:05:56.600Z,29.58
2023-05-05T08:06:56.643Z,29.54
2023-05-05T08:07:56.662Z,29.52
2023-05-05T08:08:56.647Z,29.52
2023-05-05T08:09:56.688Z,29.46
2023-05-05T08:10:56.722Z,29.45
2023-05-05T08:11:56.720Z,29.41
2023-05-05T08:12:56.783Z,29.35
2023-05-05T08:13:56.802Z,29.35
2023-05-05T08:14:56.802Z,29.32
2023-05-05T08:15:56.851Z,29.31
2023-05-05T08:16:56.907Z,29.29
2023-05-05T08:17:56.870Z,29.29
2023-05-05T08:18:56.874Z,29.25
2023-05-05T08:19:56.863Z,29.25
2023-05-05T08:20:57.059Z,29.21
2023-05-05T08:21:57.759Z,29.18
2023-05-05T08:22:56.919Z,29.14
2023-05-05T08:23:57.004Z,29.14
2023-05-05T08:24:56.938Z,29.10
2023-05-05T08:25:56.966Z,29.07
2023-05-05T08:26:56.950Z,29.15
2023-05-05T08:27:56.987Z,29.54
2023-05-05T08:28:56.971Z,28.83
2023-05-05T08:29:57.025Z,28.00
2023-05-05T08:30:57.034Z,28.54
2023-05-05T08:31:57.275Z,28.59
2023-05-05T08:32:57.220Z,29.43
2023-05-05T08:33:57.172Z,29.81
2023-05-05T08:34:57.238Z,29.31
2023-05-05T08:35:57.300Z,28.88
2023-05-05T08:36:57.354Z,28.92
2023-05-05T08:37:59.286Z,29.08
2023-05-05T08:38:57.491Z,28.98
2023-05-05T08:39:57.522Z,29.26
2023-05-05T08:40:57.566Z,29.75
2023-05-05T08:41:57.606Z,29.05
2023-05-05T08:42:57.648Z,28.63
2023-05-05T08:43:57.706Z,28.84
2023-05-05T08:44:59.097Z,28.81
2023-05-05T08:45:57.811Z,28.77
2023-05-05T08:46:57.922Z,28.41
2023-05-05T08:47:57.907Z,28.09
2023-05-05T08:48:57.943Z,28.05
2023-05-05T08:49:57.881Z,28.17
2023-05-05T08:50:59.846Z,28.07
2023-05-05T08:51:57.971Z,28.14
2023-05-05T08:52:58.044Z,28.07
2023-05-05T08:53:58.083Z,28.18
2023-05-05T08:54:58.117Z,27.95
2023-05-05T08:55:58.160Z,27.61
2023-05-05T08:56:58.208Z,27.55
2023-05-05T08:57:58.343Z,27.99
2023-05-05T08:58:58.328Z,27.87
2023-05-05T08:59:58.373Z,27.81
2023-05-05T09:00:58.482Z,27.90
2023-05-05T09:01:58.493Z,27.93
2023-05-05T09:02:58.778Z,27.55
2023-05-05T09:03:58.681Z,27.40
2023-05-05T09:04:58.743Z,27.25
2023-05-05T09:05:58.736Z,27.46
2023-05-05T09:06:58.789Z,27.35
2023-05-05T09:07:58.837Z,27.49
2023-05-05T09:08:59.739Z,27.33
2023-05-05T09:09:58.906Z,27.15
2023-05-05T09:10:58.973Z,27.16
2023-05-05T09:11:59.053Z,27.15
2023-05-05T09:12:59.042Z,27.15
2023-05-05T09:13:59.070Z,26.90
2023-05-05T09:14:59.412Z,26.84
2023-05-05T09:15:59.099Z,26.85
2023-05-05T09:16:59.145Z,26.69
2023-05-05T09:17:59.158Z,26.67
2023-05-05T09:18:59.140Z,26.63
2023-05-05T09:19:59.150Z,26.53
2023-05-05T09:20:59.671Z,26.48
2023-05-05T09:21:59.189Z,26.33
2023-05-05T09:22:59.205Z,26.24
2023-05-05T09:24:04.930Z,26.12
2023-05-05T09:25:00.179Z,25.99
2023-05-05T09:25:59.172Z,26.13
2023-05-05T09:26:59.204Z,26.00
2023-05-05T09:27:59.152Z,26.10
2023-05-05T09:28:59.192Z,26.02
2023-05-05T09:29:59.150Z,26.06
2023-05-05T09:30:59.159Z,26.26
2023-05-05T09:31:59.139Z,26.25
2023-05-05T09:32:59.175Z,26.28
2023-05-05T09:33:59.127Z,26.20
2023-05-05T09:34:59.112Z,25.99
2023-05-05T09:35:59.210Z,26.18
2023-05-05T09:36:59.150Z,26.09
2023-05-05T09:37:59.090Z,26.39
2023-05-05T09:38:59.213Z,26.55
2023-05-05T09:39:59.092Z,26.57
2023-05-05T09:40:59.079Z,26.66
2023-05-05T09:41:59.063Z,26.72
2023-05-05T09:42:59.067Z,26.40
2023-05-05T09:43:59.047Z,26.36
2023-05-05T09:44:59.977Z,26.24
2023-05-05T09:45:59.090Z,26.37
2023-05-05T09:46:59.016Z,26.08
2023-05-05T09:48:00.581Z,25.85
2023-05-05T09:48:59.133Z,25.76
2023-05-05T09:49:59.160Z,25.57
2023-05-05T09:50:59.224Z,25.65
2023-05-05T09:51:59.297Z,25.65
2023-05-05T09:52:59.436Z,25.64
2023-05-05T09:53:59.407Z,25.66
2023-05-05T09:54:59.497Z,25.72
2023-05-05T09:55:59.544Z,25.85
2023-05-05T09:56:59.561Z,25.95
2023-05-05T09:57:59.671Z,25.95
2023-05-05T09:58:59.720Z,25.98
2023-05-05T09:59:59.758Z,26.15
2023-05-05T10:00:59.795Z,26.30
2023-05-05T10:01:59.816Z,26.28
2023-05-05T10:02:59.864Z,26.19
2023-05-05T10:03:59.908Z,26.00
2023-05-05T10:05:01.623Z,25.96
2023-05-05T10:05:59.960Z,26.10
2023-05-05T10:06:59.951Z,25.99
2023-05-05T10:07:59.998Z,25.90
2023-05-05T10:09:00.086Z,25.87
2023-05-05T10:10:00.064Z,25.84
2023-05-05T10:11:00.067Z,25.77
2023-05-05T10:12:00.085Z,25.75
2023-05-05T10:13:00.164Z,25.76
2023-05-05T10:14:00.197Z,25.90
2023-05-05T10:15:00.170Z,25.87
2023-05-05T10:16:00.242Z,25.89
2023-05-05T10:17:00.194Z,25.80
2023-05-05T10:18:07.687Z,25.81
2023-05-05T10:19:01.199Z,25.85
2023-05-05T10:20:00.261Z,25.73
2023-05-05T10:21:00.262Z,25.75
2023-05-05T10:22:00.165Z,25.85
2023-05-05T10:23:00.164Z,25.97
2023-05-05T10:24:00.169Z,26.10
2023-05-05T10:25:00.514Z,26.22
2023-05-05T10:26:00.158Z,26.23
2023-05-05T10:27:00.154Z,26.21
2023-05-05T10:28:00.770Z,26.22
2023-05-05T10:29:00.148Z,26.27
2023-05-05T10:30:00.168Z,26.28
2023-05-05T10:31:00.140Z,26.19
2023-05-05T10:32:00.150Z,26.36
2023-05-05T10:34:00.360Z,26.12
2023-05-05T10:35:00.093Z,26.17
2023-05-05T10:36:00.102Z,25.99
2023-05-05T10:37:00.071Z,25.94
2023-05-05T10:38:00.088Z,25.83
2023-05-05T10:39:00.051Z,25.77
2023-05-05T10:40:00.066Z,25.70
2023-05-05T10:41:00.139Z,25.73
2023-05-05T10:42:00.057Z,25.68
2023-05-05T10:43:00.043Z,25.64
2023-05-05T10:44:01.507Z,25.74
2023-05-05T10:45:00.060Z,25.80
2023-05-05T10:46:00.008Z,25.78
2023-05-05T10:46:59.999Z,25.79
2023-05-05T10:48:00.002Z,25.87
2023-05-05T10:49:00.017Z,25.87
2023-05-05T10:49:59.984Z,25.85
2023-05-05T10:51:00.012Z,25.88
2023-05-05T10:51:59.960Z,25.92
2023-05-05T10:52:59.971Z,26.01
2023-05-05T10:53:59.984Z,26.09
2023-05-05T10:54:59.962Z,26.19
2023-05-05T10:55:59.950Z,26.08
2023-05-05T10:57:00.028Z,26.07
2023-05-05T10:57:59.960Z,26.35
2023-05-05T10:59:00.811Z,26.43
2023-05-05T10:59:59.913Z,26.29
2023-05-05T11:00:59.939Z,26.35
2023-05-05T11:01:59.946Z,26.38
2023-05-05T11:02:59.995Z,26.53
2023-05-05T11:03:59.936Z,26.68
2023-05-05T11:04:59.905Z,26.46
2023-05-05T11:05:59.901Z,26.36
2023-05-05T11:06:59.911Z,26.38
2023-05-05T11:07:59.889Z,26.27
2023-05-05T11:08:59.846Z,26.43
2023-05-05T11:09:59.885Z,26.40
2023-05-05T11:10:59.894Z,26.35
2023-05-05T11:11:59.874Z,26.21
2023-05-05T11:12:59.927Z,26.16
2023-05-05T11:13:59.833Z,26.14
2023-05-05T11:14:59.864Z,26.01
2023-05-05T11:15:59.828Z,25.89
2023-05-05T11:16:59.842Z,25.87
2023-05-05T11:17:59.888Z,25.81
2023-05-05T11:18:59.801Z,25.73
2023-05-05T11:19:59.791Z,25.64
2023-05-05T11:20:59.857Z,25.53
2023-05-05T11:21:59.786Z,25.52
2023-05-05T11:22:59.786Z,25.44
2023-05-05T11:23:59.780Z,25.34
2023-05-05T11:25:00.228Z,25.24
2023-05-05T11:25:59.834Z,25.20
2023-05-05T11:26:59.766Z,25.14
2023-05-05T11:27:59.794Z,25.14
2023-05-05T11:28:59.872Z,25.04
2023-05-05T11:29:59.753Z,25.04
2023-05-05T11:30:59.955Z,24.99
2023-05-05T11:31:59.724Z,24.97
2023-05-05T11:32:59.748Z,24.78
2023-05-05T11:33:59.811Z,24.77
2023-05-05T11:34:59.707Z,24.69
2023-05-05T11:35:59.693Z,24.59
2023-05-05T11:36:59.671Z,24.60
2023-05-05T11:37:59.856Z,24.61
2023-05-05T11:38:59.696Z,24.44
2023-05-05T11:39:59.703Z,24.37
2023-05-05T11:40:59.687Z,24.43
2023-05-05T11:41:59.675Z,24.26
2023-05-05T11:42:59.668Z,24.24
2023-05-05T11:43:59.696Z,24.33
2023-05-05T11:44:59.754Z,24.14
2023-05-05T11:45:59.753Z,24.09
2023-05-05T11:46:59.679Z,24.26
2023-05-05T11:47:59.779Z,24.23
2023-05-05T11:48:59.664Z,24.38
2023-05-05T11:49:59.663Z,24.40
2023-05-05T11:50:59.701Z,24.37
2023-05-05T11:51:59.688Z,24.44
2023-05-05T11:52:59.711Z,24.40
2023-05-05T11:53:59.746Z,24.49
2023-05-05T11:54:59.766Z,24.46
2023-05-05T11:55:59.786Z,24.51
2023-05-05T11:56:59.820Z,24.55
2023-05-05T11:57:59.898Z,24.48
2023-05-05T11:58:59.981Z,24.46
2023-05-05T12:00:00.052Z,24.47
2023-05-05T12:01:00.198Z,24.52
2023-05-05T12:02:00.143Z,24.57
2023-05-05T12:03:00.278Z,24.48
2023-05-05T12:04:00.399Z,24.49
2023-05-05T12:05:00.417Z,24.47
2023-05-05T12:06:00.363Z,24.46
2023-05-05T12:07:00.453Z,24.53
2023-05-05T12:08:00.479Z,24.46
2023-05-05T12:09:00.558Z,24.49
2023-05-05T12:10:00.610Z,24.46
2023-05-05T12:11:00.627Z,24.48
2023-05-05T12:12:00.675Z,24.54
2023-05-05T12:13:00.843Z,24.46
2023-05-05T12:14:00.778Z,24.51
2023-05-05T12:15:00.815Z,24.51
2023-05-05T12:16:00.936Z,24.55
2023-05-05T12:17:00.998Z,24.51
2023-05-05T12:18:03.026Z,24.55
2023-05-05T12:19:01.028Z,24.52
2023-05-05T12:20:01.044Z,24.53
2023-05-05T12:21:01.098Z,24.54
2023-05-05T12:22:01.146Z,24.53
2023-05-05T12:23:01.193Z,24.52
2023-05-05T12:24:01.194Z,24.52
2023-05-05T12:25:01.272Z,24.50
2023-05-05T12:26:01.318Z,24.49
2023-05-05T12:27:01.335Z,24.53
2023-05-05T12:28:01.365Z,24.51
2023-05-05T12:29:01.425Z,24.52
2023-05-05T12:30:01.444Z,24.49
2023-05-05T12:31:01.512Z,24.54
2023-05-05T12:32:01.563Z,24.55
2023-05-05T12:33:01.679Z,24.58
2023-05-05T12:34:01.552Z,24.53
2023-05-05T12:35:01.648Z,24.55
2023-05-05T12:36:01.643Z,24.48
2023-05-05T12:37:01.677Z,24.53
2023-05-05T12:38:01.699Z,24.52
2023-05-05T12:39:01.702Z,24.52
2023-05-05T12:40:01.763Z,24.54
2023-05-05T12:41:01.764Z,24.53
2023-05-05T12:42:01.793Z,24.51
2023-05-05T12:43:01.832Z,24.50
2023-05-05T12:44:01.859Z,24.48
2023-05-05T12:45:01.871Z,24.48
2023-05-05T12:46:01.977Z,24.51
2023-05-05T12:47:01.876Z,24.54
2023-05-05T12:48:01.985Z,24.49
2023-05-05T12:49:02.018Z,24.48
2023-05-05T12:50:01.940Z,24.50
2023-05-05T12:51:01.952Z,24.45
2023-05-05T12:52:01.972Z,24.49
2023-05-05T12:53:01.986Z,24.46
2023-05-05T12:54:01.966Z,24.45
2023-05-05T12:55:02.012Z,24.44